Time;durP1;ratioP1;P1;durP2;ratioP2;P2;SDS_P1;SDS_P2;PMS_P1;PMS_P2;Temp;Humidity;BMP_temperature;BMP_pressure;BME280_temperature;BME280_humidity;BME280_pressure;Samples;Min_cycle;Max_cycle;Signal;HPM_P1;HPM_P2
2023/06/20 00:59:46;;;;;;;17.35;12.15;;;;;;;;;;6263028;22;20209;-90
2023/06/20 01:02:52;;;;;;;19.40;12.10;;;;;;;;;;6304592;22;20165;-90
2023/06/20 01:06:03;;;;;;;22.00;13.80;;;;;;;;;;6304169;22;20165;-90
2023/06/20 01:09:14;;;;;;;23.50;14.23;;;;;;;;;;6303245;22;20237;-89
2023/06/20 01:12:22;;;;;;;24.73;13.32;;;;;;;;;;6303875;22;20161;-92
2023/06/20 01:15:53;;;;;;;22.90;13.95;;;;;;;;;;6303919;22;20184;-89
2023/06/20 01:19:06;;;;;;;20.90;13.50;;;;;;;;;;6303291;22;20165;-89
2023/06/20 01:22:14;;;;;;;24.05;13.30;;;;;;;;;;6301057;22;20168;-89
2023/06/20 01:25:26;;;;;;;20.42;12.93;;;;;;;;;;6302627;22;20166;-90
2023/06/20 01:28:35;;;;;;;24.52;14.27;;;;;;;;;;6303470;22;20168;-89
2023/06/20 01:31:42;;;;;;;23.48;14.00;;;;;;;;;;6302627;22;20493;-90
2023/06/20 01:34:50;;;;;;;23.92;14.02;;;;;;;;;;6302855;22;20169;-90
2023/06/20 01:37:58;;;;;;;22.35;13.13;;;;;;;;;;6302446;22;20235;-90
2023/06/20 01:41:06;;;;;;;21.48;13.88;;;;;;;;;;6303204;22;20169;-89
2023/06/20 01:44:13;;;;;;;22.50;13.63;;;;;;;;;;6302904;22;20662;-91
2023/06/20 01:47:18;;;;;;;19.10;13.38;;;;;;;;;;6303366;22;20191;-88
2023/06/20 01:50:24;;;;;;;23.90;13.85;;;;;;;;;;6303067;22;20160;-91
2023/06/20 01:53:29;;;;;;;23.33;13.73;;;;;;;;;;6301911;22;20187;-91
2023/06/20 01:56:36;;;;;;;23.55;13.27;;;;;;;;;;6302885;22;20290;-92
2023/06/20 01:59:43;;;;;;;21.42;14.07;;;;;;;;;;6302162;22;20189;-89
2023/06/20 02:02:48;;;;;;;23.33;14.70;;;;;;;;;;6303115;22;20615;-89
2023/06/20 02:05:56;;;;;;;25.40;14.90;;;;;;;;;;6303266;22;20207;-92
2023/06/20 02:09:04;;;;;;;21.33;13.55;;;;;;;;;;6302511;22;20169;-90
2023/06/20 02:12:11;;;;;;;20.65;13.43;;;;;;;;;;6302212;22;20153;-91
2023/06/20 02:15:17;;;;;;;21.58;13.35;;;;;;;;;;6301397;22;20275;-91
2023/06/20 02:18:22;;;;;;;28.33;13.32;;;;;;;;;;6319369;22;20169;-89
2023/06/20 02:21:30;;;;;;;19.48;12.93;;;;;;;;;;6301548;22;20604;-88
2023/06/20 02:24:36;;;;;;;23.05;13.23;;;;;;;;;;6298968;22;20296;-90
2023/06/20 02:27:43;;;;;;;18.70;12.27;;;;;;;;;;6300786;22;20181;-88
2023/06/20 02:30:53;;;;;;;18.85;12.82;;;;;;;;;;6302035;22;20616;-89
2023/06/20 02:34:00;;;;;;;21.92;13.80;;;;;;;;;;6301732;22;20223;-90
2023/06/20 02:37:06;;;;;;;22.75;13.38;;;;;;;;;;6301952;22;20165;-87
2023/06/20 02:40:12;;;;;;;20.38;13.05;;;;;;;;;;6300267;22;20287;-89
2023/06/20 02:43:19;;;;;;;22.13;13.98;;;;;;;;;;6302093;22;20144;-90
2023/06/20 02:46:27;;;;;;;20.63;14.13;;;;;;;;;;6300460;22;20699;-90
2023/06/20 02:49:37;;;;;;;20.05;13.70;;;;;;;;;;6299973;22;20168;-90
2023/06/20 02:52:48;;;;;;;20.08;13.18;;;;;;;;;;6300590;22;20658;-89
2023/06/20 02:55:56;;;;;;;20.05;13.40;;;;;;;;;;6300534;22;20144;-89
2023/06/20 02:59:04;;;;;;;20.17;13.15;;;;;;;;;;6301455;22;20247;-90
2023/06/20 03:02:13;;;;;;;22.77;13.48;;;;;;;;;;6301301;22;20169;-89
2023/06/20 03:05:19;;;;;;;21.92;13.50;;;;;;;;;;6302551;22;20161;-89
2023/06/20 03:08:25;;;;;;;18.58;12.55;;;;;;;;;;6300666;22;20514;-89
2023/06/20 03:11:31;;;;;;;19.90;12.93;;;;;;;;;;6300370;22;20157;-87
2023/06/20 03:14:38;;;;;;;20.13;13.57;;;;;;;;;;6301352;22;20169;-91
2023/06/20 03:17:44;;;;;;;19.90;12.98;;;;;;;;;;6302628;22;20172;-89
2023/06/20 03:20:49;;;;;;;25.45;13.30;;;;;;;;;;6302624;22;20216;-91
2023/06/20 03:23:54;;;;;;;20.63;14.00;;;;;;;;;;6302284;22;20602;-90
2023/06/20 03:26:59;;;;;;;20.30;12.55;;;;;;;;;;6301102;22;20192;-90
2023/06/20 03:30:07;;;;;;;24.77;13.65;;;;;;;;;;6304342;22;20189;-91
2023/06/20 03:33:16;;;;;;;24.08;12.68;;;;;;;;;;6305717;22;20169;-91
2023/06/20 03:36:21;;;;;;;19.27;12.98;;;;;;;;;;6304272;22;20161;-89
2023/06/20 03:39:26;;;;;;;21.70;13.15;;;;;;;;;;6304961;22;20153;-88
2023/06/20 03:42:32;;;;;;;25.27;13.35;;;;;;;;;;6303382;22;20161;-90
2023/06/20 03:45:40;;;;;;;24.25;13.35;;;;;;;;;;6306013;22;20169;-91
2023/06/20 03:48:45;;;;;;;23.05;13.45;;;;;;;;;;6306566;22;20169;-92
2023/06/20 03:51:51;;;;;;;23.70;13.60;;;;;;;;;;6304676;22;20168;-91
2023/06/20 03:54:56;;;;;;;23.08;12.70;;;;;;;;;;6305365;22;20173;-89
2023/06/20 03:58:02;;;;;;;23.83;12.50;;;;;;;;;;6303502;22;20185;-90
2023/06/20 04:01:34;;;;;;;19.35;12.85;;;;;;;;;;6303928;22;20166;-90
2023/06/20 04:04:43;;;;;;;25.20;13.43;;;;;;;;;;6304205;22;20165;-90
2023/06/20 04:07:48;;;;;;;21.92;12.43;;;;;;;;;;6304355;22;20216;-90
2023/06/20 04:10:53;;;;;;;23.00;12.48;;;;;;;;;;6303996;22;20239;-91
2023/06/20 04:13:59;;;;;;;19.38;12.63;;;;;;;;;;6303109;22;20168;-91
2023/06/20 04:17:04;;;;;;;18.70;12.65;;;;;;;;;;6304767;22;20179;-90
2023/06/20 04:20:14;;;;;;;21.92;13.55;;;;;;;;;;6302771;22;20164;-90
2023/06/20 04:23:19;;;;;;;23.60;13.50;;;;;;;;;;6304897;22;20214;-91
2023/06/20 04:26:24;;;;;;;22.00;12.95;;;;;;;;;;6305315;22;20165;-90
2023/06/20 04:29:29;;;;;;;21.60;12.95;;;;;;;;;;6303069;22;20162;-88
2023/06/20 04:32:34;;;;;;;19.88;12.85;;;;;;;;;;6303678;22;20177;-92
2023/06/20 04:35:41;;;;;;;20.77;13.18;;;;;;;;;;6304267;22;20160;-90
2023/06/20 04:38:47;;;;;;;18.88;12.70;;;;;;;;;;6302941;22;20157;-90
2023/06/20 04:41:53;;;;;;;20.67;12.85;;;;;;;;;;6303422;22;20208;-93
2023/06/20 04:44:58;;;;;;;20.05;13.25;;;;;;;;;;6301650;22;20735;-89
2023/06/20 04:48:03;;;;;;;20.10;12.75;;;;;;;;;;6302924;22;20181;-92
2023/06/20 04:51:10;;;;;;;20.77;13.38;;;;;;;;;;6302855;22;20173;-88
2023/06/20 04:54:15;;;;;;;18.48;13.32;;;;;;;;;;6302972;22;20169;-90
2023/06/20 05:01:21;;;;;;;21.75;12.77;;;;;;;;;;6302681;22;20667;-89
2023/06/20 05:04:27;;;;;;;21.85;13.45;;;;;;;;;;6302116;22;20149;-91
2023/06/20 05:07:34;;;;;;;22.85;13.90;;;;;;;;;;6303237;22;20558;-90
2023/06/20 05:10:39;;;;;;;22.63;14.25;;;;;;;;;;6304620;22;20170;-88
2023/06/20 05:13:44;;;;;;;21.55;13.27;;;;;;;;;;6304764;22;20498;-89
2023/06/20 05:16:50;;;;;;;23.02;13.77;;;;;;;;;;6305412;22;20165;-89
2023/06/20 05:19:57;;;;;;;25.92;13.80;;;;;;;;;;6304817;22;20165;-92
2023/06/20 05:23:03;;;;;;;21.90;12.43;;;;;;;;;;6304429;22;20165;-92
2023/06/20 05:26:08;;;;;;;18.77;12.27;;;;;;;;;;6304945;22;20168;-90
2023/06/20 05:29:14;;;;;;;23.15;13.68;;;;;;;;;;6305728;22;20189;-90
2023/06/20 05:32:19;;;;;;;22.33;12.90;;;;;;;;;;6306281;22;20175;-92
2023/06/20 05:35:24;;;;;;;23.35;13.85;;;;;;;;;;6305927;22;20252;-91
2023/06/20 05:38:36;;;;;;;23.92;13.20;;;;;;;;;;6303862;22;20261;-91
2023/06/20 05:41:43;;;;;;;26.88;13.32;;;;;;;;;;6304363;22;20218;-91
2023/06/20 05:44:48;;;;;;;22.42;14.68;;;;;;;;;;6301118;22;20497;-90
2023/06/20 05:47:53;;;;;;;19.70;12.90;;;;;;;;;;6300414;22;20177;-89
2023/06/20 05:51:00;;;;;;;21.38;12.90;;;;;;;;;;6320052;22;20627;-89
2023/06/20 05:54:07;;;;;;;30.30;12.93;;;;;;;;;;6300140;22;20165;-89
2023/06/20 05:57:22;;;;;;;21.05;13.05;;;;;;;;;;6300698;22;20208;-91
2023/06/20 06:00:27;;;;;;;24.65;12.50;;;;;;;;;;6298701;22;20185;-87
2023/06/20 06:03:34;;;;;;;19.63;12.60;;;;;;;;;;6301051;22;20164;-89
2023/06/20 06:06:43;;;;;;;20.40;13.13;;;;;;;;;;6302577;22;20492;-89
2023/06/20 06:09:50;;;;;;;19.27;12.23;;;;;;;;;;6301394;22;20177;-88
2023/06/20 06:12:55;;;;;;;18.58;12.07;;;;;;;;;;6301478;22;20500;-89
2023/06/20 06:16:00;;;;;;;17.83;12.48;;;;;;;;;;6299855;22;20229;-88
2023/06/20 06:19:09;;;;;;;22.15;13.00;;;;;;;;;;6306476;22;20145;-89
2023/06/20 06:22:14;;;;;;;20.30;12.38;;;;;;;;;;6319603;22;20165;-91
2023/06/20 06:25:21;;;;;;;19.40;12.45;;;;;;;;;;6298577;22;20166;-89
2023/06/20 06:28:27;;;;;;;19.42;13.52;;;;;;;;;;6300346;22;20275;-91
2023/06/20 06:31:35;;;;;;;22.70;14.32;;;;;;;;;;6298536;22;20165;-91
2023/06/20 06:34:41;;;;;;;23.77;14.88;;;;;;;;;;6301539;22;20149;-90
2023/06/20 06:37:46;;;;;;;21.90;14.07;;;;;;;;;;6300290;22;20173;-91
2023/06/20 06:40:54;;;;;;;22.33;13.32;;;;;;;;;;6300003;22;20499;-90
2023/06/20 06:43:59;;;;;;;19.77;13.02;;;;;;;;;;6301222;22;20161;-91
2023/06/20 06:47:06;;;;;;;21.02;10.95;;;;;;;;;;6299487;22;20256;-88
2023/06/20 06:50:11;;;;;;;15.20;9.98;;;;;;;;;;6299570;22;20165;-90
2023/06/20 06:53:17;;;;;;;18.42;11.55;;;;;;;;;;6319502;22;20161;-87
2023/06/20 06:56:23;;;;;;;15.35;11.25;;;;;;;;;;6300583;22;20640;-88
2023/06/20 06:59:28;;;;;;;16.70;11.15;;;;;;;;;;6302169;22;20172;-89
2023/06/20 07:02:33;;;;;;;18.58;11.60;;;;;;;;;;6302756;22;20177;-88
2023/06/20 07:05:38;;;;;;;18.23;11.27;;;;;;;;;;6304689;22;20166;-89
2023/06/20 07:08:44;;;;;;;20.75;12.27;;;;;;;;;;6306344;22;20546;-89
2023/06/20 07:11:50;;;;;;;19.00;10.65;;;;;;;;;;6303385;22;20170;-89
2023/06/20 07:14:56;;;;;;;18.42;10.73;;;;;;;;;;6308501;22;20166;-89
2023/06/20 07:18:01;;;;;;;20.10;10.57;;;;;;;;;;6302234;22;20173;-89
2023/06/20 07:21:06;;;;;;;18.15;10.88;;;;;;;;;;6302699;22;20258;-88
2023/06/20 07:24:11;;;;;;;14.75;10.15;;;;;;;;;;6304026;22;20184;-90
2023/06/20 07:27:21;;;;;;;16.38;10.57;;;;;;;;;;6305066;22;20169;-90
2023/06/20 07:30:27;;;;;;;18.45;10.65;;;;;;;;;;6302353;22;20243;-89
2023/06/20 07:33:32;;;;;;;16.40;9.90;;;;;;;;;;6302782;22;20173;-90
2023/06/20 07:36:37;;;;;;;15.52;10.15;;;;;;;;;;6304572;22;20219;-90
2023/06/20 07:39:43;;;;;;;13.45;9.07;;;;;;;;;;6303712;22;20157;-90
2023/06/20 07:42:49;;;;;;;14.40;9.20;;;;;;;;;;6303177;22;20646;-88
2023/06/20 07:45:55;;;;;;;12.60;9.13;;;;;;;;;;6302362;22;20173;-90
2023/06/20 07:49:00;;;;;;;19.40;9.10;;;;;;;;;;6302091;22;20192;-90
2023/06/20 07:52:06;;;;;;;15.23;9.65;;;;;;;;;;6302293;22;20495;-91
2023/06/20 07:55:11;;;;;;;16.52;10.27;;;;;;;;;;6301897;22;20170;-90
2023/06/20 07:58:20;;;;;;;15.70;9.43;;;;;;;;;;6302218;22;20160;-91
2023/06/20 08:01:25;;;;;;;12.90;9.27;;;;;;;;;;6319916;22;20235;-91
2023/06/20 08:04:31;;;;;;;11.85;9.23;;;;;;;;;;6303079;22;20157;-88
2023/06/20 08:07:41;;;;;;;12.88;9.48;;;;;;;;;;6305928;22;20576;-88
2023/06/20 08:10:47;;;;;;;14.93;10.32;;;;;;;;;;6304609;22;20163;-90
2023/06/20 08:13:53;;;;;;;18.13;10.35;;;;;;;;;;6303028;22;20222;-90
2023/06/20 08:16:58;;;;;;;16.50;9.68;;;;;;;;;;6301170;22;20160;-90
2023/06/20 08:20:06;;;;;;;17.10;9.95;;;;;;;;;;6320743;22;20212;-89
2023/06/20 08:23:11;;;;;;;16.83;9.52;;;;;;;;;;6322564;22;20164;-90
2023/06/20 08:26:16;;;;;;;15.35;9.20;;;;;;;;;;6303109;22;20176;-88
2023/06/20 08:29:22;;;;;;;15.05;9.30;;;;;;;;;;6302818;22;20196;-90
2023/06/20 08:32:27;;;;;;;17.60;9.40;;;;;;;;;;6302378;22;20696;-90
2023/06/20 08:35:32;;;;;;;16.55;9.40;;;;;;;;;;6306158;22;20179;-89
2023/06/20 08:38:38;;;;;;;11.10;8.75;;;;;;;;;;6303645;22;20173;-89
2023/06/20 08:41:43;;;;;;;13.75;8.30;;;;;;;;;;6300835;22;20199;-89
2023/06/20 08:44:51;;;;;;;12.55;9.38;;;;;;;;;;6302321;22;20210;-91
2023/06/20 08:47:58;;;;;;;12.52;8.85;;;;;;;;;;6302176;22;20165;-88
2023/06/20 08:51:04;;;;;;;11.68;8.45;;;;;;;;;;6303686;22;20168;-90
2023/06/20 08:54:13;;;;;;;13.90;8.63;;;;;;;;;;6303542;22;20164;-90
2023/06/20 08:57:27;;;;;;;12.55;8.25;;;;;;;;;;6301776;22;20188;-90
2023/06/20 09:00:34;;;;;;;12.60;8.27;;;;;;;;;;6300972;22;20196;-89
2023/06/20 09:03:39;;;;;;;10.73;7.80;;;;;;;;;;6302463;22;20140;-90
2023/06/20 09:06:47;;;;;;;11.82;7.93;;;;;;;;;;6302595;22;20185;-90
2023/06/20 09:09:52;;;;;;;13.93;8.77;;;;;;;;;;6304635;22;20188;-90
2023/06/20 09:13:08;;;;;;;12.13;7.95;;;;;;;;;;6302918;22;20168;-88
2023/06/20 09:16:29;;;;;;;11.88;7.85;;;;;;;;;;6302036;22;20165;-90
2023/06/20 09:19:42;;;;;;;11.25;7.70;;;;;;;;;;6302047;22;20303;-90
2023/06/20 09:22:47;;;;;;;13.75;7.35;;;;;;;;;;6304018;22;20176;-90
2023/06/20 09:25:53;;;;;;;21.13;8.00;;;;;;;;;;6300831;22;20672;-89
2023/06/20 09:29:06;;;;;;;11.00;6.65;;;;;;;;;;6301547;22;20172;-89
2023/06/20 09:32:19;;;;;;;13.75;7.90;;;;;;;;;;6304860;22;20172;-88
2023/06/20 09:35:25;;;;;;;9.48;7.07;;;;;;;;;;6303660;22;20160;-88
2023/06/20 09:38:31;;;;;;;9.07;7.05;;;;;;;;;;6304287;22;20203;-89
2023/06/20 09:41:36;;;;;;;12.63;6.47;;;;;;;;;;6303750;22;20181;-90
2023/06/20 09:44:43;;;;;;;10.95;7.10;;;;;;;;;;6303606;22;20157;-90
2023/06/20 09:47:50;;;;;;;10.10;6.50;;;;;;;;;;6302273;22;20216;-91
2023/06/20 09:50:56;;;;;;;12.90;6.78;;;;;;;;;;6303896;22;20176;-88
2023/06/20 09:54:06;;;;;;;10.68;6.20;;;;;;;;;;6322032;22;20168;-91
2023/06/20 09:57:13;;;;;;;11.02;6.63;;;;;;;;;;6300854;22;20235;-89
2023/06/20 10:00:19;;;;;;;10.38;6.78;;;;;;;;;;6321408;22;20188;-90
2023/06/20 10:03:26;;;;;;;8.18;6.15;;;;;;;;;;6303823;22;20161;-89
2023/06/20 10:06:31;;;;;;;9.20;6.50;;;;;;;;;;6304124;22;20167;-91
2023/06/20 10:09:37;;;;;;;11.65;6.70;;;;;;;;;;6300044;22;20188;-90
2023/06/20 10:12:44;;;;;;;11.07;6.20;;;;;;;;;;6300062;22;20497;-90
2023/06/20 10:15:49;;;;;;;8.63;6.28;;;;;;;;;;6302149;22;20232;-87
2023/06/20 10:18:56;;;;;;;9.88;6.15;;;;;;;;;;6301343;22;20148;-91
2023/06/20 10:22:02;;;;;;;8.25;5.85;;;;;;;;;;6304060;22;20164;-89
2023/06/20 10:25:15;;;;;;;7.88;5.63;;;;;;;;;;6306343;22;20246;-89
2023/06/20 10:28:22;;;;;;;9.43;6.18;;;;;;;;;;6302725;22;20258;-89
2023/06/20 10:31:48;;;;;;;8.35;5.95;;;;;;;;;;6304921;22;20205;-90
2023/06/20 10:38:14;;;;;;;9.55;5.80;;;;;;;;;;6305370;22;20168;-91
2023/06/20 10:41:23;;;;;;;7.05;5.32;;;;;;;;;;6307731;22;20187;-90
2023/06/20 10:44:30;;;;;;;7.50;5.55;;;;;;;;;;6306440;22;20176;-91
2023/06/20 10:47:35;;;;;;;8.18;5.20;;;;;;;;;;6308082;22;20295;-86
2023/06/20 10:50:42;;;;;;;10.02;5.43;;;;;;;;;;6308806;22;20163;-89
2023/06/20 10:53:47;;;;;;;10.43;6.18;;;;;;;;;;6306862;22;20179;-89
2023/06/20 10:56:54;;;;;;;6.82;5.78;;;;;;;;;;6308365;22;20171;-88
2023/06/20 10:59:59;;;;;;;8.65;5.53;;;;;;;;;;6308059;22;20191;-88
2023/06/20 11:03:05;;;;;;;8.20;5.53;;;;;;;;;;6307756;22;20207;-88
2023/06/20 11:06:15;;;;;;;8.68;6.05;;;;;;;;;;6306582;22;20172;-91
2023/06/20 11:09:22;;;;;;;10.52;6.22;;;;;;;;;;6305840;22;20261;-90
2023/06/20 11:12:30;;;;;;;9.20;5.03;;;;;;;;;;6306837;22;20167;-90
2023/06/20 11:15:37;;;;;;;7.75;5.50;;;;;;;;;;6307596;22;20149;-90
2023/06/20 11:18:57;;;;;;;6.72;4.93;;;;;;;;;;6307519;22;20184;-92
2023/06/20 11:22:04;;;;;;;9.60;4.65;;;;;;;;;;6305471;22;20165;-92
2023/06/20 11:25:10;;;;;;;6.95;4.80;;;;;;;;;;6307675;22;20168;-90
2023/06/20 11:28:16;;;;;;;6.90;4.93;;;;;;;;;;6302788;22;20441;-89
2023/06/20 11:31:21;;;;;;;7.90;4.88;;;;;;;;;;6304976;22;20260;-93
2023/06/20 11:34:26;;;;;;;6.88;4.45;;;;;;;;;;6309208;22;20276;-92
2023/06/20 11:37:34;;;;;;;6.72;4.35;;;;;;;;;;6306412;22;20220;-90
2023/06/20 11:40:42;;;;;;;6.10;4.32;;;;;;;;;;6305111;22;20215;-87
2023/06/20 11:43:54;;;;;;;5.50;4.30;;;;;;;;;;6306594;22;20231;-91
2023/06/20 11:47:01;;;;;;;6.03;4.85;;;;;;;;;;6306776;22;20168;-91
2023/06/20 11:50:07;;;;;;;5.90;4.45;;;;;;;;;;6305192;22;20219;-90
2023/06/20 11:53:20;;;;;;;5.82;4.13;;;;;;;;;;6306355;22;20428;-90
2023/06/20 11:56:27;;;;;;;7.90;4.15;;;;;;;;;;6306386;22;20644;-91
2023/06/20 11:59:32;;;;;;;10.40;4.10;;;;;;;;;;6305475;22;20204;-88
2023/06/20 12:02:40;;;;;;;6.85;4.70;;;;;;;;;;6304566;22;20168;-87
2023/06/20 12:05:48;;;;;;;6.38;4.50;;;;;;;;;;6305800;22;20160;-89
2023/06/20 12:08:56;;;;;;;5.53;4.28;;;;;;;;;;6306088;22;20169;-91
2023/06/20 12:12:01;;;;;;;5.80;4.32;;;;;;;;;;6306138;22;20238;-92
2023/06/20 12:15:08;;;;;;;7.57;4.13;;;;;;;;;;6306953;22;20169;-89
2023/06/20 12:18:13;;;;;;;5.00;3.70;;;;;;;;;;6307095;22;20222;-90
2023/06/20 12:21:19;;;;;;;4.60;3.58;;;;;;;;;;6306269;22;20184;-89
2023/06/20 12:24:28;;;;;;;6.13;4.03;;;;;;;;;;6308418;22;20167;-89
2023/06/20 12:27:35;;;;;;;6.38;3.58;;;;;;;;;;6308255;22;20168;-90
2023/06/20 12:30:40;;;;;;;5.53;4.18;;;;;;;;;;6305608;22;20161;-89
2023/06/20 12:33:46;;;;;;;5.28;3.90;;;;;;;;;;6305716;22;20188;-90
2023/06/20 12:36:52;;;;;;;5.50;4.40;;;;;;;;;;6303355;22;20164;-91
2023/06/20 12:40:01;;;;;;;4.32;3.72;;;;;;;;;;6303656;22;20286;-90
2023/06/20 12:43:06;;;;;;;5.63;3.58;;;;;;;;;;6324001;22;20168;-90
2023/06/20 12:46:12;;;;;;;7.45;3.83;;;;;;;;;;6304212;22;20168;-90
2023/06/20 12:49:18;;;;;;;5.28;3.75;;;;;;;;;;6325098;22;20148;-88
2023/06/20 12:52:25;;;;;;;5.63;3.88;;;;;;;;;;6305234;22;20234;-89
2023/06/20 12:55:32;;;;;;;4.53;3.42;;;;;;;;;;6306456;22;20207;-89
2023/06/20 12:58:37;;;;;;;5.70;3.70;;;;;;;;;;6303677;22;20479;-91
2023/06/20 13:01:42;;;;;;;6.80;3.63;;;;;;;;;;6300610;22;20682;-90
2023/06/20 13:04:49;;;;;;;4.40;3.78;;;;;;;;;;6307471;22;20152;-91
2023/06/20 13:07:54;;;;;;;4.53;3.67;;;;;;;;;;6304871;22;20217;-91
2023/06/20 13:11:01;;;;;;;7.28;3.78;;;;;;;;;;6303932;22;20167;-90
2023/06/20 13:14:09;;;;;;;5.93;3.67;;;;;;;;;;6304515;22;20203;-89
2023/06/20 13:17:15;;;;;;;4.93;3.63;;;;;;;;;;6305387;22;20192;-90
2023/06/20 13:20:20;;;;;;;3.90;3.42;;;;;;;;;;6304522;22;20192;-89
2023/06/20 13:26:47;;;;;;;6.80;3.50;;;;;;;;;;6303359;22;20220;-90
2023/06/20 15:25:56;;;;;;;5.25;3.30;;;;;;;;;;6298284;22;20229;-90
2023/06/20 15:29:02;;;;;;;5.32;3.83;;;;;;;;;;6305356;22;20169;-88
2023/06/20 15:32:07;;;;;;;5.53;3.40;;;;;;;;;;6301931;22;20164;-87
2023/06/20 15:35:13;;;;;;;6.20;3.40;;;;;;;;;;6302073;22;20275;-87
2023/06/20 15:38:21;;;;;;;7.43;4.03;;;;;;;;;;6304759;22;20195;-88
2023/06/20 15:41:30;;;;;;;8.48;3.20;;;;;;;;;;6303043;22;20189;-87
2023/06/20 15:44:36;;;;;;;8.48;3.42;;;;;;;;;;6304026;22;20169;-88
2023/06/20 15:47:42;;;;;;;6.80;3.40;;;;;;;;;;6302306;22;20173;-89
2023/06/20 15:50:47;;;;;;;7.95;3.20;;;;;;;;;;6301108;22;20169;-88
2023/06/20 15:53:53;;;;;;;8.32;3.33;;;;;;;;;;6302372;22;20175;-88
2023/06/20 15:57:03;;;;;;;7.25;3.30;;;;;;;;;;6302425;22;20193;-88
2023/06/20 16:00:09;;;;;;;6.60;3.13;;;;;;;;;;6303338;22;20701;-89
2023/06/20 16:03:15;;;;;;;9.65;3.78;;;;;;;;;;6303306;22;20184;-89
2023/06/20 16:06:23;;;;;;;8.18;3.60;;;;;;;;;;6299871;22;20241;-90
2023/06/20 16:09:28;;;;;;;6.97;3.38;;;;;;;;;;6302659;22;20169;-89
2023/06/20 16:12:35;;;;;;;6.88;3.30;;;;;;;;;;6303022;22;20166;-91
2023/06/20 16:15:41;;;;;;;8.88;3.15;;;;;;;;;;6301472;22;20230;-89
2023/06/20 16:18:46;;;;;;;9.05;3.60;;;;;;;;;;6301244;22;20701;-91
2023/06/20 16:21:50;;;;;;;9.32;3.58;;;;;;;;;;6300129;22;20164;-89
2023/06/20 16:24:57;;;;;;;8.43;3.50;;;;;;;;;;6299753;22;20196;-88
2023/06/20 16:28:04;;;;;;;4.97;3.40;;;;;;;;;;6299190;22;20171;-92
2023/06/20 16:31:09;;;;;;;8.30;3.72;;;;;;;;;;6301006;22;20234;-90
2023/06/20 16:34:14;;;;;;;8.45;4.10;;;;;;;;;;6302287;22;20184;-90
2023/06/20 16:37:19;;;;;;;5.97;3.63;;;;;;;;;;6302245;22;20164;-90
2023/06/20 16:40:40;;;;;;;6.53;3.60;;;;;;;;;;6299141;22;20192;-91
2023/06/20 16:43:46;;;;;;;8.77;3.42;;;;;;;;;;6300858;22;20172;-89
2023/06/20 16:46:51;;;;;;;8.65;4.32;;;;;;;;;;6298923;22;20161;-91
2023/06/20 16:49:57;;;;;;;6.20;3.58;;;;;;;;;;6301313;22;20506;-91
2023/06/20 16:53:03;;;;;;;7.95;3.40;;;;;;;;;;6299829;22;20619;-90
2023/06/20 16:56:14;;;;;;;8.40;3.65;;;;;;;;;;6298694;22;20669;-91
2023/06/20 16:59:21;;;;;;;8.20;3.33;;;;;;;;;;6301451;22;20164;-91
2023/06/20 17:02:26;;;;;;;7.00;3.03;;;;;;;;;;6301730;22;20169;-90
2023/06/20 17:05:32;;;;;;;8.52;3.20;;;;;;;;;;6301220;22;20164;-90
2023/06/20 17:08:38;;;;;;;10.05;3.65;;;;;;;;;;6301354;22;20169;-91
2023/06/20 17:11:43;;;;;;;7.47;3.67;;;;;;;;;;6300885;22;20250;-90
2023/06/20 17:14:50;;;;;;;9.10;3.33;;;;;;;;;;6302152;22;20156;-89
2023/06/20 17:17:58;;;;;;;6.60;3.85;;;;;;;;;;6301149;22;20291;-88
2023/06/20 17:21:04;;;;;;;6.70;3.47;;;;;;;;;;6299656;22;20227;-92
2023/06/20 17:24:09;;;;;;;6.43;3.45;;;;;;;;;;6299123;22;20292;-90
2023/06/20 17:27:14;;;;;;;10.27;3.65;;;;;;;;;;6300014;22;20169;-89
2023/06/20 17:30:21;;;;;;;9.85;3.40;;;;;;;;;;6302034;22;20172;-89
2023/06/20 17:33:26;;;;;;;8.32;3.53;;;;;;;;;;6307315;22;20165;-89
2023/06/20 17:36:35;;;;;;;5.03;3.70;;;;;;;;;;6308081;22;20200;-88
2023/06/20 17:39:43;;;;;;;9.18;4.13;;;;;;;;;;6308076;22;20236;-90
2023/06/20 17:42:49;;;;;;;7.55;4.15;;;;;;;;;;6303334;22;20160;-87
2023/06/20 17:45:56;;;;;;;8.23;4.50;;;;;;;;;;6303507;22;20145;-88
2023/06/20 17:49:01;;;;;;;9.60;4.55;;;;;;;;;;6301221;22;20555;-90
2023/06/20 17:52:06;;;;;;;11.73;5.10;;;;;;;;;;6302781;22;20214;-88
2023/06/20 17:55:11;;;;;;;7.22;4.45;;;;;;;;;;6303214;22;20231;-90
2023/06/20 17:58:16;;;;;;;13.63;5.13;;;;;;;;;;6301305;22;20235;-90
2023/06/20 18:01:23;;;;;;;10.77;5.22;;;;;;;;;;6304055;22;20177;-86
2023/06/20 18:04:29;;;;;;;16.17;7.50;;;;;;;;;;6305568;22;20164;-90
2023/06/20 18:07:33;;;;;;;12.23;5.18;;;;;;;;;;6303639;22;20176;-88
2023/06/20 18:10:39;;;;;;;7.90;4.28;;;;;;;;;;6303986;22;20192;-90
2023/06/20 18:13:46;;;;;;;9.13;5.10;;;;;;;;;;6301662;22;20158;-88
2023/06/20 18:16:52;;;;;;;12.82;5.50;;;;;;;;;;6301398;22;20200;-89
2023/06/20 18:19:57;;;;;;;11.55;4.80;;;;;;;;;;6303552;22;20221;-89
2023/06/20 18:23:02;;;;;;;12.95;5.25;;;;;;;;;;6300858;22;20242;-90
2023/06/20 18:26:07;;;;;;;12.82;5.22;;;;;;;;;;6300808;22;20620;-90
2023/06/20 18:29:12;;;;;;;8.65;5.00;;;;;;;;;;6300550;22;20183;-89
2023/06/20 18:32:19;;;;;;;9.82;5.25;;;;;;;;;;6301263;22;20207;-89
2023/06/20 18:35:24;;;;;;;8.50;4.50;;;;;;;;;;6301365;22;20173;-86
2023/06/20 18:38:29;;;;;;;8.38;4.70;;;;;;;;;;6300633;22;20492;-88
2023/06/20 18:41:35;;;;;;;8.88;5.55;;;;;;;;;;6302636;22;20224;-90
2023/06/20 18:44:40;;;;;;;10.68;6.30;;;;;;;;;;6301564;22;20218;-88
2023/06/20 18:47:47;;;;;;;8.48;5.05;;;;;;;;;;6301713;22;20165;-88
2023/06/20 18:50:52;;;;;;;11.77;5.57;;;;;;;;;;6302656;22;20164;-89
2023/06/20 18:53:58;;;;;;;8.63;4.40;;;;;;;;;;6307699;22;20161;-90
2023/06/20 18:57:05;;;;;;;11.38;5.10;;;;;;;;;;6300803;22;20165;-89
2023/06/20 19:00:11;;;;;;;11.52;5.18;;;;;;;;;;6302480;22;20246;-88
2023/06/20 19:03:19;;;;;;;8.18;4.80;;;;;;;;;;6304101;22;20173;-90
2023/06/20 19:06:24;;;;;;;12.65;5.40;;;;;;;;;;6304263;22;20165;-89
2023/06/20 19:09:30;;;;;;;11.75;5.47;;;;;;;;;;6306295;22;20165;-91
2023/06/20 19:12:36;;;;;;;8.38;4.47;;;;;;;;;;6305838;22;20170;-89
2023/06/20 19:15:41;;;;;;;9.93;4.95;;;;;;;;;;6305346;22;20578;-89
2023/06/20 19:18:47;;;;;;;16.20;6.57;;;;;;;;;;6304411;22;20169;-90
2023/06/20 19:21:53;;;;;;;12.30;5.13;;;;;;;;;;6323173;22;20188;-89
2023/06/20 19:24:58;;;;;;;8.13;5.30;;;;;;;;;;6303523;22;20184;-89
2023/06/20 19:28:03;;;;;;;11.88;5.90;;;;;;;;;;6307279;22;20172;-87
2023/06/20 19:31:09;;;;;;;15.57;6.10;;;;;;;;;;6321028;22;20262;-90
2023/06/20 19:34:17;;;;;;;11.38;5.57;;;;;;;;;;6301486;22;20183;-90
2023/06/20 19:37:22;;;;;;;12.32;6.07;;;;;;;;;;6302528;22;20659;-88
2023/06/20 19:40:28;;;;;;;9.45;5.32;;;;;;;;;;6302840;22;20180;-89
2023/06/20 19:43:33;;;;;;;10.65;5.50;;;;;;;;;;6299384;22;20176;-89
2023/06/20 19:46:39;;;;;;;11.85;6.13;;;;;;;;;;6303318;22;20225;-89
2023/06/20 19:49:46;;;;;;;11.27;5.93;;;;;;;;;;6302183;22;20165;-89
2023/06/20 19:52:51;;;;;;;9.73;5.75;;;;;;;;;;6302725;22;20208;-88
2023/06/20 19:55:58;;;;;;;10.65;5.10;;;;;;;;;;6302726;22;20173;-87
2023/06/20 19:59:03;;;;;;;14.50;6.10;;;;;;;;;;6303724;22;20288;-89
2023/06/20 20:05:29;;;;;;;14.98;6.43;;;;;;;;;;6302092;22;20162;-88
2023/06/20 20:08:35;;;;;;;10.65;5.70;;;;;;;;;;6303087;22;20244;-88
2023/06/20 20:11:39;;;;;;;13.10;6.20;;;;;;;;;;6303276;22;20169;-88
2023/06/20 20:14:45;;;;;;;9.43;5.57;;;;;;;;;;6301064;22;20173;-88
2023/06/20 20:21:45;;;;;;;11.50;6.20;;;;;;;;;;6303500;22;20197;-89
2023/06/20 20:24:50;;;;;;;12.35;6.82;;;;;;;;;;6305082;22;20173;-88
2023/06/20 20:27:55;;;;;;;10.38;5.75;;;;;;;;;;6303361;22;20247;-90
2023/06/20 20:31:05;;;;;;;11.98;6.25;;;;;;;;;;6304563;22;20165;-89
2023/06/20 20:34:10;;;;;;;15.25;6.00;;;;;;;;;;6305835;22;20210;-88
2023/06/20 20:37:17;;;;;;;11.80;6.28;;;;;;;;;;6306168;22;20161;-88
2023/06/20 20:40:24;;;;;;;11.35;6.60;;;;;;;;;;6306501;22;20165;-89
2023/06/20 20:43:29;;;;;;;10.73;7.05;;;;;;;;;;6304261;22;20232;-88
2023/06/20 20:46:34;;;;;;;11.88;7.28;;;;;;;;;;6323899;22;20213;-88
2023/06/20 20:50:00;;;;;;;17.08;7.38;;;;;;;;;;6306491;22;20153;-89
2023/06/20 20:53:07;;;;;;;12.95;7.53;;;;;;;;;;6306057;22;20165;-90
2023/06/20 20:56:25;;;;;;;14.60;7.90;;;;;;;;;;6306225;22;20196;-89
2023/06/20 20:59:30;;;;;;;17.88;9.10;;;;;;;;;;6305132;22;20157;-91
2023/06/20 21:02:36;;;;;;;14.05;9.02;;;;;;;;;;6307556;22;20199;-91
2023/06/20 21:05:41;;;;;;;13.75;7.45;;;;;;;;;;6304438;22;20622;-91
2023/06/20 21:08:48;;;;;;;11.15;6.53;;;;;;;;;;6304408;22;20165;-91
2023/06/20 21:11:54;;;;;;;10.70;6.38;;;;;;;;;;6305682;22;20165;-89
2023/06/20 21:15:00;;;;;;;11.75;6.82;;;;;;;;;;6304726;22;20161;-90
2023/06/20 21:18:09;;;;;;;11.60;7.15;;;;;;;;;;6303357;22;20213;-89
2023/06/20 21:21:15;;;;;;;10.43;6.22;;;;;;;;;;6304107;22;20212;-88
2023/06/20 21:24:22;;;;;;;10.77;7.70;;;;;;;;;;6303540;22;20181;-90
2023/06/20 21:27:28;;;;;;;12.45;7.15;;;;;;;;;;6303585;22;20164;-91
2023/06/20 21:30:34;;;;;;;21.35;12.57;;;;;;;;;;6305679;22;20184;-91
2023/06/20 21:33:39;;;;;;;24.00;12.65;;;;;;;;;;6305958;22;20160;-90